Inks Lake Village, Texas
Current Conditions -  °F | °C
As of 8:55 PM on Friday 21 Nov 2014 (Local Time) from KAQO Reporting Station
Overcast Overcast  
Wind Chill: 64°   Ceiling: 3400
Heat Index: 64°   Visibility: 10mi
Dew Point: 63°   Wind: 9mph
Humidity: 94%   Direction: 150°SSE
Pressure: 30.07"   Gusts: NA
Location:  30.7573°N, 98.4911°W
Report Text: KAQO 220255Z AUTO 15008KT 10SM SCT027 BKN034 OVC050 18/17 A3007 RMK AO2 LTG DSNT SE
Loading
Personal Weather Stations






























Interactive Weather Map New forecast layout! Learn more

10-Day Weather Forecast

Advertisements
Track Severe Weather on mobile